sensor_id;sensor_type;location;lat;lon;timestamp;pressure;altitude;pressure_sealevel;temperature;humidity
35151;BME280;55720;51.972;4.624;2022-11-06T00:00:12;101118.66;;;10.72;100.00
35151;BME280;55720;51.972;4.624;2022-11-06T00:02:38;101113.16;;;10.72;100.00
35151;BME280;55720;51.972;4.624;2022-11-06T00:05:04;101104.91;;;10.72;100.00
35151;BME280;55720;51.972;4.624;2022-11-06T00:07:48;101109.94;;;10.70;100.00
35151;BME280;55720;51.972;4.624;2022-11-06T00:10:15;101099.25;;;10.77;100.00
35151;BME280;55720;51.972;4.624;2022-11-06T00:12:40;101089.41;;;10.76;100.00
35151;BME280;55720;51.972;4.624;2022-11-06T00:15:06;101098.28;;;10.73;100.00
35151;BME280;55720;51.972;4.624;2022-11-06T00:17:31;101089.91;;;10.69;100.00
35151;BME280;55720;51.972;4.624;2022-11-06T00:19:57;101090.72;;;10.70;100.00
35151;BME280;55720;51.972;4.624;2022-11-06T00:22:23;101092.50;;;10.66;100.00
35151;BME280;55720;51.972;4.624;2022-11-06T00:24:49;101079.91;;;10.65;100.00
35151;BME280;55720;51.972;4.624;2022-11-06T00:27:14;101082.84;;;10.60;100.00
35151;BME280;55720;51.972;4.624;2022-11-06T00:29:40;101092.66;;;10.61;100.00
35151;BME280;55720;51.972;4.624;2022-11-06T00:32:06;101088.47;;;10.63;100.00
35151;BME280;55720;51.972;4.624;2022-11-06T00:34:31;101084.72;;;10.68;100.00
35151;BME280;55720;51.972;4.624;2022-11-06T00:36:57;101091.03;;;10.68;100.00
35151;BME280;55720;51.972;4.624;2022-11-06T00:39:22;101085.19;;;10.78;100.00
35151;BME280;55720;51.972;4.624;2022-11-06T00:41:47;101091.19;;;10.72;100.00
35151;BME280;55720;51.972;4.624;2022-11-06T00:44:13;101088.28;;;10.77;100.00
35151;BME280;55720;51.972;4.624;2022-11-06T00:46:38;101091.03;;;10.77;100.00
35151;BME280;55720;51.972;4.624;2022-11-06T00:49:03;101081.16;;;10.76;100.00
35151;BME280;55720;51.972;4.624;2022-11-06T00:51:34;101080.50;;;10.79;100.00
35151;BME280;55720;51.972;4.624;2022-11-06T00:54:09;101091.47;;;10.79;100.00
35151;BME280;55720;51.972;4.624;2022-11-06T00:56:35;101080.34;;;10.75;100.00
35151;BME280;55720;51.972;4.624;2022-11-06T00:59:03;101078.56;;;10.79;100.00
35151;BME280;55720;51.972;4.624;2022-11-06T01:01:36;101086.34;;;10.77;100.00
35151;BME280;55720;51.972;4.624;2022-11-06T01:04:04;101088.28;;;10.77;100.00
35151;BME280;55720;51.972;4.624;2022-11-06T01:06:32;101083.59;;;10.77;100.00
35151;BME280;55720;51.972;4.624;2022-11-06T01:08:59;101096.00;;;10.75;100.00
35151;BME280;55720;51.972;4.624;2022-11-06T01:11:33;101090.69;;;10.78;100.00
35151;BME280;55720;51.972;4.624;2022-11-06T01:14:01;101097.94;;;10.74;100.00
35151;BME280;55720;51.972;4.624;2022-11-06T01:16:27;101088.56;;;10.84;100.00
35151;BME280;55720;51.972;4.624;2022-11-06T01:18:53;101081.81;;;10.81;100.00
35151;BME280;55720;51.972;4.624;2022-11-06T01:21:22;101085.69;;;10.72;100.00
35151;BME280;55720;51.972;4.624;2022-11-06T01:23:55;101087.31;;;10.73;100.00
35151;BME280;55720;51.972;4.624;2022-11-06T01:26:22;101089.56;;;10.71;100.00
35151;BME280;55720;51.972;4.624;2022-11-06T01:28:47;101069.06;;;10.68;100.00
35151;BME280;55720;51.972;4.624;2022-11-06T01:31:16;101067.94;;;10.69;100.00
35151;BME280;55720;51.972;4.624;2022-11-06T01:33:42;101075.97;;;10.74;100.00
35151;BME280;55720;51.972;4.624;2022-11-06T01:36:09;101073.75;;;10.68;100.00
35151;BME280;55720;51.972;4.624;2022-11-06T01:38:35;101086.03;;;10.70;100.00
35151;BME280;55720;51.972;4.624;2022-11-06T01:41:01;101086.03;;;10.62;100.00
35151;BME280;55720;51.972;4.624;2022-11-06T01:43:59;101093.16;;;10.63;100.00
35151;BME280;55720;51.972;4.624;2022-11-06T01:46:29;101098.28;;;10.73;100.00
35151;BME280;55720;51.972;4.624;2022-11-06T01:49:09;101087.81;;;10.66;100.00
35151;BME280;55720;51.972;4.624;2022-11-06T01:51:42;101094.44;;;10.65;100.00
35151;BME280;55720;51.972;4.624;2022-11-06T01:54:10;101104.97;;;10.55;100.00
35151;BME280;55720;51.972;4.624;2022-11-06T01:56:36;101118.03;;;10.49;100.00
35151;BME280;55720;51.972;4.624;2022-11-06T01:59:04;101145.97;;;10.43;100.00
35151;BME280;55720;51.972;4.624;2022-11-06T02:01:31;101152.13;;;10.40;100.00
35151;BME280;55720;51.972;4.624;2022-11-06T02:04:08;101180.22;;;10.36;100.00
35151;BME280;55720;51.972;4.624;2022-11-06T02:06:35;101192.47;;;10.39;100.00
35151;BME280;55720;51.972;4.624;2022-11-06T02:09:03;101200.72;;;10.39;100.00
35151;BME280;55720;51.972;4.624;2022-11-06T02:11:38;101189.25;;;10.37;100.00
35151;BME280;55720;51.972;4.624;2022-11-06T02:14:20;101194.75;;;10.37;100.00
35151;BME280;55720;51.972;4.624;2022-11-06T02:17:05;101201.53;;;10.48;100.00
35151;BME280;55720;51.972;4.624;2022-11-06T02:19:53;101202.97;;;10.46;100.00
35151;BME280;55720;51.972;4.624;2022-11-06T02:25:00;101207.84;;;10.49;100.00
35151;BME280;55720;51.972;4.624;2022-11-06T02:27:28;101213.31;;;10.40;100.00
35151;BME280;55720;51.972;4.624;2022-11-06T02:30:08;101216.38;;;10.47;100.00
35151;BME280;55720;51.972;4.624;2022-11-06T02:32:39;101219.28;;;10.51;100.00
35151;BME280;55720;51.972;4.624;2022-11-06T02:37:40;101220.59;;;10.53;100.00
35151;BME280;55720;51.972;4.624;2022-11-06T02:40:08;101229.13;;;10.60;100.00
35151;BME280;55720;51.972;4.624;2022-11-06T02:42:37;101218.50;;;10.59;100.00
35151;BME280;55720;51.972;4.624;2022-11-06T02:45:07;101196.84;;;10.66;100.00
35151;BME280;55720;51.972;4.624;2022-11-06T02:47:37;101176.66;;;10.70;100.00
35151;BME280;55720;51.972;4.624;2022-11-06T02:50:26;101174.22;;;10.69;100.00
35151;BME280;55720;51.972;4.624;2022-11-06T02:52:54;101152.09;;;10.65;100.00
35151;BME280;55720;51.972;4.624;2022-11-06T02:55:36;101152.09;;;10.65;100.00
35151;BME280;55720;51.972;4.624;2022-11-06T02:58:15;101163.59;;;10.59;100.00
35151;BME280;55720;51.972;4.624;2022-11-06T03:00:44;101177.16;;;10.47;100.00
35151;BME280;55720;51.972;4.624;2022-11-06T03:03:26;101193.63;;;10.47;100.00
35151;BME280;55720;51.972;4.624;2022-11-06T03:06:09;101219.59;;;10.49;100.00
35151;BME280;55720;51.972;4.624;2022-11-06T03:08:46;101228.19;;;10.48;100.00
35151;BME280;55720;51.972;4.624;2022-11-06T03:11:27;101214.78;;;10.55;100.00
35151;BME280;55720;51.972;4.624;2022-11-06T03:22:08;101150.94;;;10.75;100.00
35151;BME280;55720;51.972;4.624;2022-11-06T03:24:53;101136.75;;;10.73;100.00
35151;BME280;55720;51.972;4.624;2022-11-06T03:27:24;101117.38;;;10.69;100.00
35151;BME280;55720;51.972;4.624;2022-11-06T03:30:02;101129.31;;;10.73;100.00
35151;BME280;55720;51.972;4.624;2022-11-06T03:32:34;101142.09;;;10.69;100.00
35151;BME280;55720;51.972;4.624;2022-11-06T03:35:09;101128.16;;;10.74;100.00
35151;BME280;55720;51.972;4.624;2022-11-06T03:37:51;101136.09;;;10.76;100.00
35151;BME280;55720;51.972;4.624;2022-11-06T03:40:19;101139.34;;;10.69;100.00
35151;BME280;55720;51.972;4.624;2022-11-06T03:42:47;101145.78;;;10.73;100.00
35151;BME280;55720;51.972;4.624;2022-11-06T03:45:19;101140.16;;;10.70;100.00
35151;BME280;55720;51.972;4.624;2022-11-06T03:48:13;101129.00;;;10.66;100.00
35151;BME280;55720;51.972;4.624;2022-11-06T03:50:48;101134.66;;;10.70;100.00
35151;BME280;55720;51.972;4.624;2022-11-06T03:53:28;101145.94;;;10.77;100.00
35151;BME280;55720;51.972;4.624;2022-11-06T03:58:52;101117.00;;;10.88;100.00
35151;BME280;55720;51.972;4.624;2022-11-06T04:01:23;101104.53;;;10.91;100.00
35151;BME280;55720;51.972;4.624;2022-11-06T04:03:57;101085.16;;;10.87;100.00
35151;BME280;55720;51.972;4.624;2022-11-06T04:06:39;101068.31;;;10.97;100.00
35151;BME280;55720;51.972;4.624;2022-11-06T04:09:08;101056.72;;;10.92;100.00
35151;BME280;55720;51.972;4.624;2022-11-06T04:11:55;101042.97;;;10.92;100.00
35151;BME280;55720;51.972;4.624;2022-11-06T04:14:42;101043.59;;;10.97;100.00
35151;BME280;55720;51.972;4.624;2022-11-06T04:17:11;101033.72;;;10.96;100.00
35151;BME280;55720;51.972;4.624;2022-11-06T04:19:40;101027.47;;;10.96;100.00
35151;BME280;55720;51.972;4.624;2022-11-06T04:28:11;101026.66;;;10.95;100.00
35151;BME280;55720;51.972;4.624;2022-11-06T04:30:51;101014.34;;;10.93;100.00
35151;BME280;55720;51.972;4.624;2022-11-06T04:33:27;101020.94;;;11.00;100.00
35151;BME280;55720;51.972;4.624;2022-11-06T04:36:15;101024.50;;;11.01;100.00
35151;BME280;55720;51.972;4.624;2022-11-06T04:44:46;101013.38;;;10.97;100.00
35151;BME280;55720;51.972;4.624;2022-11-06T04:47:16;101011.56;;;11.01;100.00
35151;BME280;55720;51.972;4.624;2022-11-06T04:49:43;101000.44;;;10.98;100.00
35151;BME280;55720;51.972;4.624;2022-11-06T04:52:15;101006.91;;;10.93;100.00
35151;BME280;55720;51.972;4.624;2022-11-06T04:54:43;101016.78;;;10.94;100.00
35151;BME280;55720;51.972;4.624;2022-11-06T04:57:09;101031.50;;;10.90;100.00
35151;BME280;55720;51.972;4.624;2022-11-06T04:59:35;101038.47;;;10.87;100.00
35151;BME280;55720;51.972;4.624;2022-11-06T05:02:01;101064.16;;;10.82;100.00
35151;BME280;55720;51.972;4.624;2022-11-06T05:04:27;101069.22;;;10.72;100.00
35151;BME280;55720;51.972;4.624;2022-11-06T05:06:52;101089.41;;;10.67;100.00
35151;BME280;55720;51.972;4.624;2022-11-06T05:09:17;101097.19;;;10.57;100.00
35151;BME280;55720;51.972;4.624;2022-11-06T05:11:43;101111.41;;;10.59;100.00
35151;BME280;55720;51.972;4.624;2022-11-06T05:14:08;101127.56;;;10.52;100.00
35151;BME280;55720;51.972;4.624;2022-11-06T05:16:33;101131.28;;;10.56;100.00
35151;BME280;55720;51.972;4.624;2022-11-06T05:18:59;101151.13;;;10.53;100.00
35151;BME280;55720;51.972;4.624;2022-11-06T05:21:24;101161.50;;;10.56;100.00
35151;BME280;55720;51.972;4.624;2022-11-06T05:24:08;101164.84;;;10.53;100.00
35151;BME280;55720;51.972;4.624;2022-11-06T05:26:34;101166.47;;;10.54;100.00
35151;BME280;55720;51.972;4.624;2022-11-06T05:28:59;101158.44;;;10.49;100.00
35151;BME280;55720;51.972;4.624;2022-11-06T05:31:24;101156.97;;;10.51;100.00
35151;BME280;55720;51.972;4.624;2022-11-06T05:33:50;101160.69;;;10.47;100.00
35151;BME280;55720;51.972;4.624;2022-11-06T05:36:16;101159.69;;;10.43;100.00
35151;BME280;55720;51.972;4.624;2022-11-06T05:38:41;101151.97;;;10.45;100.00
35151;BME280;55720;51.972;4.624;2022-11-06T05:41:06;101154.72;;;10.45;100.00
35151;BME280;55720;51.972;4.624;2022-11-06T05:43:32;101166.00;;;10.43;100.00
35151;BME280;55720;51.972;4.624;2022-11-06T05:45:57;101166.00;;;10.52;100.00
35151;BME280;55720;51.972;4.624;2022-11-06T05:48:25;101163.91;;;10.49;100.00
35151;BME280;55720;51.972;4.624;2022-11-06T05:50:50;101164.06;;;10.35;100.00
35151;BME280;55720;51.972;4.624;2022-11-06T05:53:16;101162.13;;;10.35;100.00
35151;BME280;55720;51.972;4.624;2022-11-06T05:55:44;101167.97;;;10.34;100.00
35151;BME280;55720;51.972;4.624;2022-11-06T05:58:09;101166.47;;;10.28;100.00
35151;BME280;55720;51.972;4.624;2022-11-06T06:00:35;101173.75;;;10.32;100.00
35151;BME280;55720;51.972;4.624;2022-11-06T06:03:01;101168.56;;;10.31;100.00
35151;BME280;55720;51.972;4.624;2022-11-06T06:05:26;101176.47;;;10.24;100.00
35151;BME280;55720;51.972;4.624;2022-11-06T06:07:52;101180.38;;;10.31;100.00
35151;BME280;55720;51.972;4.624;2022-11-06T06:10:17;101182.63;;;10.29;100.00
35151;BME280;55720;51.972;4.624;2022-11-06T06:12:42;101174.56;;;10.33;100.00
35151;BME280;55720;51.972;4.624;2022-11-06T06:15:08;101143.56;;;10.32;100.00
35151;BME280;55720;51.972;4.624;2022-11-06T06:17:34;101164.41;;;10.33;100.00
35151;BME280;55720;51.972;4.624;2022-11-06T06:19:59;101179.25;;;10.32;100.00
35151;BME280;55720;51.972;4.624;2022-11-06T06:22:24;101196.53;;;10.42;100.00
35151;BME280;55720;51.972;4.624;2022-11-06T06:24:50;101180.69;;;10.38;100.00
35151;BME280;55720;51.972;4.624;2022-11-06T06:27:15;101203.13;;;10.32;100.00
35151;BME280;55720;51.972;4.624;2022-11-06T06:29:41;101202.66;;;10.38;100.00
35151;BME280;55720;51.972;4.624;2022-11-06T06:32:06;101197.16;;;10.38;100.00
35151;BME280;55720;51.972;4.624;2022-11-06T06:34:32;101196.06;;;10.48;100.00
35151;BME280;55720;51.972;4.624;2022-11-06T06:36:57;101193.94;;;10.54;100.00
35151;BME280;55720;51.972;4.624;2022-11-06T06:39:22;101184.88;;;10.53;100.00
35151;BME280;55720;51.972;4.624;2022-11-06T06:41:48;101186.19;;;10.56;100.00
35151;BME280;55720;51.972;4.624;2022-11-06T06:44:14;101175.84;;;10.61;100.00
35151;BME280;55720;51.972;4.624;2022-11-06T06:46:40;101154.38;;;10.63;100.00
35151;BME280;55720;51.972;4.624;2022-11-06T06:49:05;101139.19;;;10.66;100.00
35151;BME280;55720;51.972;4.624;2022-11-06T06:51:31;101135.78;;;10.69;100.00
35151;BME280;55720;51.972;4.624;2022-11-06T06:53:56;101118.81;;;10.75;100.00
35151;BME280;55720;51.972;4.624;2022-11-06T06:56:22;101111.53;;;10.71;100.00
35151;BME280;55720;51.972;4.624;2022-11-06T06:58:47;101109.09;;;10.78;100.00
35151;BME280;55720;51.972;4.624;2022-11-06T07:01:13;101085.47;;;10.85;100.00
35151;BME280;55720;51.972;4.624;2022-11-06T07:03:39;101062.88;;;10.89;100.00
35151;BME280;55720;51.972;4.624;2022-11-06T07:06:05;101045.53;;;10.97;100.00
35151;BME280;55720;51.972;4.624;2022-11-06T07:08:31;101026.66;;;10.95;100.00
35151;BME280;55720;51.972;4.624;2022-11-06T07:11:01;101021.91;;;11.04;100.00
35151;BME280;55720;51.972;4.624;2022-11-06T07:13:27;100998.50;;;10.98;100.00
35151;BME280;55720;51.972;4.624;2022-11-06T07:15:53;100987.13;;;11.08;100.00
35151;BME280;55720;51.972;4.624;2022-11-06T07:18:18;100970.22;;;10.98;100.00
35151;BME280;55720;51.972;4.624;2022-11-06T07:20:43;100959.41;;;10.93;100.00
35151;BME280;55720;51.972;4.624;2022-11-06T07:23:09;100960.19;;;11.02;100.00
35151;BME280;55720;51.972;4.624;2022-11-06T07:25:34;100944.97;;;11.04;100.00
35151;BME280;55720;51.972;4.624;2022-11-06T07:28:01;100948.47;;;11.13;100.00
35151;BME280;55720;51.972;4.624;2022-11-06T07:30:27;100923.41;;;11.15;100.00
35151;BME280;55720;51.972;4.624;2022-11-06T07:32:52;100914.69;;;11.33;100.00
35151;BME280;55720;51.972;4.624;2022-11-06T07:35:18;100897.53;;;11.36;100.00
35151;BME280;55720;51.972;4.624;2022-11-06T07:37:43;100869.22;;;11.57;100.00
35151;BME280;55720;51.972;4.624;2022-11-06T07:40:09;100846.97;;;11.50;100.00
35151;BME280;55720;51.972;4.624;2022-11-06T07:42:35;100824.91;;;11.70;100.00
35151;BME280;55720;51.972;4.624;2022-11-06T07:45:00;100810.19;;;11.54;100.00
35151;BME280;55720;51.972;4.624;2022-11-06T07:47:26;100795.63;;;11.74;100.00
35151;BME280;55720;51.972;4.624;2022-11-06T07:49:54;100784.75;;;12.02;100.00
35151;BME280;55720;51.972;4.624;2022-11-06T07:52:20;100777.63;;;12.13;100.00
35151;BME280;55720;51.972;4.624;2022-11-06T07:54:45;100748.22;;;11.69;100.00
35151;BME280;55720;51.972;4.624;2022-11-06T07:57:11;100735.53;;;12.13;100.00
35151;BME280;55720;51.972;4.624;2022-11-06T07:59:36;100724.09;;;12.11;100.00
35151;BME280;55720;51.972;4.624;2022-11-06T08:02:01;100709.97;;;12.12;100.00
35151;BME280;55720;51.972;4.624;2022-11-06T08:04:27;100705.75;;;12.15;100.00
35151;BME280;55720;51.972;4.624;2022-11-06T08:06:52;100706.88;;;12.26;100.00
35151;BME280;55720;51.972;4.624;2022-11-06T08:09:17;100717.91;;;12.14;100.00
35151;BME280;55720;51.972;4.624;2022-11-06T08:11:43;100714.81;;;11.91;100.00
35151;BME280;55720;51.972;4.624;2022-11-06T08:14:08;100706.78;;;11.74;100.00
35151;BME280;55720;51.972;4.624;2022-11-06T08:16:34;100718.84;;;11.94;100.00
35151;BME280;55720;51.972;4.624;2022-11-06T08:19:00;100716.75;;;11.91;100.00
35151;BME280;55720;51.972;4.624;2022-11-06T08:21:25;100717.22;;;11.80;100.00
35151;BME280;55720;51.972;4.624;2022-11-06T08:23:51;100712.06;;;11.79;100.00
35151;BME280;55720;51.972;4.624;2022-11-06T08:26:16;100714.22;;;11.73;100.00
35151;BME280;55720;51.972;4.624;2022-11-06T08:28:42;100719.91;;;11.68;100.00
35151;BME280;55720;51.972;4.624;2022-11-06T08:31:08;100711.31;;;11.58;100.00
35151;BME280;55720;51.972;4.624;2022-11-06T08:33:34;100707.88;;;11.49;100.00
35151;BME280;55720;51.972;4.624;2022-11-06T08:36:04;100716.38;;;11.56;100.00
35151;BME280;55720;51.972;4.624;2022-11-06T08:38:30;100732.13;;;11.47;100.00
35151;BME280;55720;51.972;4.624;2022-11-06T08:40:55;100726.00;;;11.50;100.00
35151;BME280;55720;51.972;4.624;2022-11-06T08:43:21;100731.13;;;11.39;100.00
35151;BME280;55720;51.972;4.624;2022-11-06T08:45:50;100738.56;;;11.39;100.00
35151;BME280;55720;51.972;4.624;2022-11-06T08:48:16;100742.84;;;11.15;100.00
35151;BME280;55720;51.972;4.624;2022-11-06T08:50:41;100741.56;;;11.13;100.00
35151;BME280;55720;51.972;4.624;2022-11-06T08:53:07;100745.38;;;11.20;100.00
35151;BME280;55720;51.972;4.624;2022-11-06T08:55:35;100746.31;;;11.24;100.00
35151;BME280;55720;51.972;4.624;2022-11-06T08:58:01;100746.81;;;11.39;100.00
35151;BME280;55720;51.972;4.624;2022-11-06T09:00:27;100751.41;;;11.59;100.00
35151;BME280;55720;51.972;4.624;2022-11-06T09:03:00;100748.28;;;11.81;100.00
35151;BME280;55720;51.972;4.624;2022-11-06T09:05:27;100737.03;;;11.98;100.00
35151;BME280;55720;51.972;4.624;2022-11-06T09:07:52;100732.25;;;12.07;100.00
35151;BME280;55720;51.972;4.624;2022-11-06T09:10:17;100727.41;;;12.28;100.00
35151;BME280;55720;51.972;4.624;2022-11-06T09:12:43;100715.25;;;12.17;100.00
35151;BME280;55720;51.972;4.624;2022-11-06T09:15:08;100698.97;;;12.24;100.00
35151;BME280;55720;51.972;4.624;2022-11-06T09:17:43;100684.06;;;12.25;100.00
35151;BME280;55720;51.972;4.624;2022-11-06T09:20:10;100673.53;;;12.15;100.00
35151;BME280;55720;51.972;4.624;2022-11-06T09:22:35;100667.28;;;12.30;100.00
35151;BME280;55720;51.972;4.624;2022-11-06T09:25:01;100658.31;;;12.33;100.00
35151;BME280;55720;51.972;4.624;2022-11-06T09:27:27;100653.88;;;12.29;100.00
35151;BME280;55720;51.972;4.624;2022-11-06T09:29:53;100657.34;;;12.26;100.00
35151;BME280;55720;51.972;4.624;2022-11-06T09:32:18;100646.78;;;12.56;100.00
35151;BME280;55720;51.972;4.624;2022-11-06T09:34:43;100647.03;;;12.51;100.00
35151;BME280;55720;51.972;4.624;2022-11-06T09:37:09;100643.28;;;12.43;100.00
35151;BME280;55720;51.972;4.624;2022-11-06T09:39:34;100636.63;;;12.72;100.00
35151;BME280;55720;51.972;4.624;2022-11-06T09:42:00;100633.63;;;12.93;100.00
35151;BME280;55720;51.972;4.624;2022-11-06T09:47:29;100631.91;;;12.72;100.00
35151;BME280;55720;51.972;4.624;2022-11-06T09:49:58;100629.59;;;12.74;100.00
35151;BME280;55720;51.972;4.624;2022-11-06T09:52:41;100631.63;;;12.77;100.00
35151;BME280;55720;51.972;4.624;2022-11-06T09:55:16;100626.75;;;12.71;100.00
35151;BME280;55720;51.972;4.624;2022-11-06T09:57:53;100626.50;;;12.76;100.00
35151;BME280;55720;51.972;4.624;2022-11-06T10:00:20;100632.56;;;12.54;100.00
35151;BME280;55720;51.972;4.624;2022-11-06T10:03:10;100634.66;;;12.72;100.00
35151;BME280;55720;51.972;4.624;2022-11-06T10:05:38;100628.44;;;12.75;100.00
35151;BME280;55720;51.972;4.624;2022-11-06T10:08:11;100624.59;;;12.64;100.00
35151;BME280;55720;51.972;4.624;2022-11-06T10:18:53;100616.09;;;13.13;100.00
35151;BME280;55720;51.972;4.624;2022-11-06T10:21:31;100608.72;;;13.32;100.00
35151;BME280;55720;51.972;4.624;2022-11-06T10:24:14;100598.41;;;13.45;100.00
35151;BME280;55720;51.972;4.624;2022-11-06T10:26:50;100611.00;;;13.62;100.00
35151;BME280;55720;51.972;4.624;2022-11-06T10:32:12;100609.34;;;13.26;100.00
35151;BME280;55720;51.972;4.624;2022-11-06T10:34:59;100605.59;;;13.18;100.00
35151;BME280;55720;51.972;4.624;2022-11-06T10:37:34;100601.66;;;13.35;100.00
35151;BME280;55720;51.972;4.624;2022-11-06T10:40:08;100593.13;;;13.40;100.00
35151;BME280;55720;51.972;4.624;2022-11-06T10:42:40;100598.94;;;13.19;100.00
35151;BME280;55720;51.972;4.624;2022-11-06T10:45:12;100590.22;;;13.33;100.00
35151;BME280;55720;51.972;4.624;2022-11-06T10:47:44;100583.47;;;13.30;100.00
35151;BME280;55720;51.972;4.624;2022-11-06T10:50:14;100586.13;;;13.11;100.00
35151;BME280;55720;51.972;4.624;2022-11-06T10:58:20;100569.75;;;13.34;100.00
35151;BME280;55720;51.972;4.624;2022-11-06T11:00:46;100582.41;;;13.19;100.00
35151;BME280;55720;51.972;4.624;2022-11-06T11:03:23;100579.59;;;13.04;100.00
35151;BME280;55720;51.972;4.624;2022-11-06T11:05:51;100575.84;;;12.96;100.00
35151;BME280;55720;51.972;4.624;2022-11-06T11:08:43;100572.19;;;12.76;100.00
35151;BME280;55720;51.972;4.624;2022-11-06T11:11:14;100586.25;;;12.44;100.00
35151;BME280;55720;51.972;4.624;2022-11-06T11:13:42;100583.88;;;12.30;100.00
35151;BME280;55720;51.972;4.624;2022-11-06T11:16:14;100569.47;;;12.49;100.00
35151;BME280;55720;51.972;4.624;2022-11-06T11:18:43;100576.31;;;12.27;100.00
35151;BME280;55720;51.972;4.624;2022-11-06T11:23:44;100585.09;;;12.17;100.00
35151;BME280;55720;51.972;4.624;2022-11-06T11:26:25;100597.09;;;12.24;100.00
35151;BME280;55720;51.972;4.624;2022-11-06T11:28:55;100616.50;;;12.16;100.00
35151;BME280;55720;51.972;4.624;2022-11-06T11:31:30;100615.50;;;12.08;100.00
35151;BME280;55720;51.972;4.624;2022-11-06T11:33:59;100624.81;;;12.04;100.00
35151;BME280;55720;51.972;4.624;2022-11-06T11:36:46;100641.91;;;11.97;100.00
35151;BME280;55720;51.972;4.624;2022-11-06T11:39:14;100652.91;;;11.97;100.00
35151;BME280;55720;51.972;4.624;2022-11-06T11:41:40;100654.84;;;11.84;100.00
35151;BME280;55720;51.972;4.624;2022-11-06T11:44:08;100659.78;;;11.91;100.00
35151;BME280;55720;51.972;4.624;2022-11-06T11:46:51;100649.69;;;11.95;100.00
35151;BME280;55720;51.972;4.624;2022-11-06T11:49:31;100652.34;;;11.92;100.00
35151;BME280;55720;51.972;4.624;2022-11-06T11:51:58;100642.91;;;12.05;100.00
35151;BME280;55720;51.972;4.624;2022-11-06T11:54:27;100634.91;;;12.00;100.00
35151;BME280;55720;51.972;4.624;2022-11-06T11:57:04;100637.53;;;11.96;100.00
35151;BME280;55720;51.972;4.624;2022-11-06T11:59:46;100629.41;;;12.00;100.00
35151;BME280;55720;51.972;4.624;2022-11-06T12:02:41;100637.53;;;11.84;100.00
35151;BME280;55720;51.972;4.624;2022-11-06T12:05:13;100624.16;;;11.82;100.00
35151;BME280;55720;51.972;4.624;2022-11-06T12:07:42;100624.28;;;11.86;100.00
35151;BME280;55720;51.972;4.624;2022-11-06T12:12:56;100614.28;;;11.81;100.00
35151;BME280;55720;51.972;4.624;2022-11-06T12:15:26;100612.81;;;11.72;100.00
35151;BME280;55720;51.972;4.624;2022-11-06T12:18:00;100606.63;;;11.75;100.00
35151;BME280;55720;51.972;4.624;2022-11-06T12:22:58;100578.28;;;11.62;100.00
35151;BME280;55720;51.972;4.624;2022-11-06T12:25:29;100575.22;;;11.64;100.00
35151;BME280;55720;51.972;4.624;2022-11-06T12:27:59;100559.16;;;11.66;100.00
35151;BME280;55720;51.972;4.624;2022-11-06T12:30:27;100547.25;;;11.62;100.00
35151;BME280;55720;51.972;4.624;2022-11-06T12:35:41;100538.66;;;11.75;100.00
35151;BME280;55720;51.972;4.624;2022-11-06T12:38:16;100544.16;;;11.63;100.00
35151;BME280;55720;51.972;4.624;2022-11-06T12:40:50;100541.09;;;11.53;100.00
35151;BME280;55720;51.972;4.624;2022-11-06T12:43:28;100563.88;;;11.53;100.00
35151;BME280;55720;51.972;4.624;2022-11-06T12:46:09;100567.31;;;11.38;100.00
35151;BME280;55720;51.972;4.624;2022-11-06T12:59:16;100628.75;;;10.97;100.00
35151;BME280;55720;51.972;4.624;2022-11-06T13:13:43;100681.81;;;11.10;100.00
35151;BME280;55720;51.972;4.624;2022-11-06T13:19:09;100688.75;;;10.95;100.00
35151;BME280;55720;51.972;4.624;2022-11-06T13:27:02;100698.25;;;10.98;100.00
35151;BME280;55720;51.972;4.624;2022-11-06T13:29:34;100701.84;;;10.77;100.00
35151;BME280;55720;51.972;4.624;2022-11-06T13:32:09;100705.66;;;10.85;100.00
35151;BME280;55720;51.972;4.624;2022-11-06T13:34:38;100698.84;;;10.70;100.00
35151;BME280;55720;51.972;4.624;2022-11-06T13:37:12;100707.78;;;10.79;100.00
35151;BME280;55720;51.972;4.624;2022-11-06T13:39:43;100722.75;;;10.70;100.00
35151;BME280;55720;51.972;4.624;2022-11-06T13:42:35;100719.09;;;10.78;100.00
35151;BME280;55720;51.972;4.624;2022-11-06T13:45:03;100724.00;;;10.72;100.00
35151;BME280;55720;51.972;4.624;2022-11-06T13:47:51;100732.81;;;10.78;100.00
35151;BME280;55720;51.972;4.624;2022-11-06T13:50:41;100734.72;;;10.65;100.00
35151;BME280;55720;51.972;4.624;2022-11-06T13:56:17;100748.78;;;10.64;100.00
35151;BME280;55720;51.972;4.624;2022-11-06T13:59:11;100741.06;;;10.57;100.00
35151;BME280;55720;51.972;4.624;2022-11-06T14:02:00;100753.63;;;10.67;100.00
35151;BME280;55720;51.972;4.624;2022-11-06T14:07:31;100756.16;;;10.51;100.00
35151;BME280;55720;51.972;4.624;2022-11-06T14:09:58;100764.53;;;10.55;100.00
35151;BME280;55720;51.972;4.624;2022-11-06T14:12:23;100756.69;;;10.45;100.00
35151;BME280;55720;51.972;4.624;2022-11-06T14:14:52;100757.09;;;10.55;100.00
35151;BME280;55720;51.972;4.624;2022-11-06T14:17:36;100756.47;;;10.50;100.00
35151;BME280;55720;51.972;4.624;2022-11-06T14:20:29;100741.66;;;10.42;100.00
35151;BME280;55720;51.972;4.624;2022-11-06T14:26:07;100745.63;;;10.32;100.00
35151;BME280;55720;51.972;4.624;2022-11-06T14:28:40;100748.22;;;10.29;100.00
35151;BME280;55720;51.972;4.624;2022-11-06T14:31:07;100740.16;;;10.24;100.00
35151;BME280;55720;51.972;4.624;2022-11-06T14:38:48;100734.69;;;10.24;100.00